Cutlerville, Michigan
Current Conditions -  °F | °C
As of 2:53 AM on Sunday 26 Oct 2014 (Local Time) from KGRR Reporting Station
Clear Clear  
Wind Chill: 51°   Ceiling: Unl
Heat Index: 51°   Visibility: 10mi
Dew Point: 36°   Wind: 8mph
Humidity: 56%   Direction: 290°WNW
Pressure: 29.9"   Gusts: NA
Location:  42.8657°N, 85.663°W
Report Text: KGRR 260653Z AUTO 29007KT 10SM CLR 11/02 A2990 RMK AO2 SLP127 T01060022
Loading
Personal Weather Stations






























Interactive Weather Map
Tropical Storm Tracking
New forecast layout! Learn more

10-Day Weather Forecast

Advertisements
Track Severe Weather on mobile